Tohshi — 3EJO5 — position and weather

sailwx.info

Track history (hours):
 
Tides and Currents Weather Stations Pressure Air Temp Water Temp Dewpoint Dewpoint Depression Visibility Wind Speed Wind Dir Waves Ship Positions

Tohshi

Last reported at 2017-Dec-07 04:16 UTC. Time now 2017-Dec-12 10:31 UTC.
Position N 01°15' E 104°05'.

Length 333 m; beam 60 m.

Type: Tanker. MMSI: 372582000.

Date/timePositionNaut miles runAvg speedWind from/ knotsBaromVisibWave heightAir tempDewpointWater temp
2017-Dec-07 04:16N 01°15' E 104°05'2 9.8
2017-Dec-07 04:01N 01°15' E 104°02'510.2
2017-Dec-07 03:31N 01°14' E 103°57'510.1
2017-Dec-07 03:01N 01°12' E 103°53'4 7.5
2017-Dec-07 02:31N 01°11' E 103°49'3 6.1
2017-Dec-07 02:01N 01°09' E 103°47'4 7.4
2017-Dec-07 01:31N 01°07' E 103°44'4 9.0
2017-Dec-07 01:00N 01°04' E 103°40'4 7.5
2017-Dec-07 00:31N 01°05' E 103°37'3 5.5
2017-Dec-06 23:56N 01°06' E 103°34'4 7.2
2017-Dec-06 23:27N 01°08' E 103°31'4 9.2
2017-Dec-06 23:00N 01°10' E 103°27'5 8.1
2017-Dec-06 22:21N 01°13' E 103°23'  
Track history (hours):
 
Tides and Currents Weather Stations Pressure Air Temp Water Temp Dewpoint Dewpoint Depression Visibility Wind Speed Wind Dir Waves Ship Positions

Tohshi

Last reported at 2017-Dec-07 04:16 UTC. Time now 2017-Dec-12 10:31 UTC.
Position N 01°15' E 104°05'.

Length 333 m; beam 60 m.

Type: Tanker. MMSI: 372582000.

Date/timePositionNaut miles runAvg speedWind from/ knotsBaromVisibWave heightAir tempDewpointWater temp
2017-Dec-07 04:16N 01°15' E 104°05'2 9.8
2017-Dec-07 04:01N 01°15' E 104°02'510.2
2017-Dec-07 03:31N 01°14' E 103°57'510.1
2017-Dec-07 03:01N 01°12' E 103°53'4 7.5
2017-Dec-07 02:31N 01°11' E 103°49'3 6.1
2017-Dec-07 02:01N 01°09' E 103°47'4 7.4
2017-Dec-07 01:31N 01°07' E 103°44'4 9.0
2017-Dec-07 01:00N 01°04' E 103°40'4 7.5
2017-Dec-07 00:31N 01°05' E 103°37'3 5.5
2017-Dec-06 23:56N 01°06' E 103°34'4 7.2
2017-Dec-06 23:27N 01°08' E 103°31'4 9.2
2017-Dec-06 23:00N 01°10' E 103°27'5 8.1
2017-Dec-06 22:21N 01°13' E 103°23'  

Dump ship's entire track history